createdAt,value
2017-08-25T00:00:50.932Z,92.53
2017-08-25T00:01:50.904Z,92.42
2017-08-25T00:02:50.858Z,92.55
2017-08-25T00:03:50.884Z,92.94
2017-08-25T00:04:50.990Z,93.26
2017-08-25T00:05:50.935Z,94.01
2017-08-25T00:06:50.966Z,94.12
2017-08-25T00:07:50.902Z,94.11
2017-08-25T00:08:51.353Z,94.18
2017-08-25T00:09:55.102Z,94.41
2017-08-25T00:10:50.963Z,93.11
2017-08-25T00:11:51.297Z,93.14
2017-08-25T00:12:51.333Z,93.34
2017-08-25T00:13:51.369Z,93.69
2017-08-25T00:14:51.308Z,93.22
2017-08-25T00:15:51.664Z,93.44
2017-08-25T00:16:50.928Z,93.97
2017-08-25T00:17:50.956Z,93.80
2017-08-25T00:18:50.895Z,94.19
2017-08-25T00:19:50.938Z,93.13
2017-08-25T00:20:50.989Z,94.01
2017-08-25T00:21:51.215Z,94.12
2017-08-25T00:22:50.943Z,94.69
2017-08-25T00:23:51.374Z,94.10
2017-08-25T00:24:51.419Z,94.02
2017-08-25T00:25:51.446Z,94.83
2017-08-25T00:26:51.374Z,94.39
2017-08-25T00:27:51.504Z,93.99
2017-08-25T00:28:51.351Z,94.48
2017-08-25T00:29:51.387Z,94.11
2017-08-25T00:30:51.429Z,93.88
2017-08-25T00:31:51.365Z,93.62
2017-08-25T00:32:50.996Z,94.05
2017-08-25T00:33:50.932Z,93.56
2017-08-25T00:34:50.968Z,92.75
2017-08-25T00:35:51.080Z,93.93
2017-08-25T00:36:51.034Z,93.65
2017-08-25T00:37:50.968Z,92.74
2017-08-25T00:38:50.970Z,93.83
2017-08-25T00:39:51.446Z,93.53
2017-08-25T00:40:51.504Z,92.66
2017-08-25T00:41:51.429Z,93.20
2017-08-25T00:42:51.461Z,92.79
2017-08-25T00:43:51.404Z,93.25
2017-08-25T00:44:51.441Z,93.26
2017-08-25T00:45:51.485Z,93.17
2017-08-25T00:46:51.440Z,93.90
2017-08-25T00:47:51.478Z,93.58
2017-08-25T00:48:51.466Z,93.41
2017-08-25T00:49:51.005Z,94.10
2017-08-25T00:50:51.052Z,93.72
2017-08-25T00:51:51.091Z,93.43
2017-08-25T00:52:51.027Z,93.62
2017-08-25T00:53:51.053Z,93.33
2017-08-25T00:54:51.087Z,93.24
2017-08-25T00:55:51.115Z,92.91
2017-08-25T00:56:51.044Z,93.38
2017-08-25T00:57:51.473Z,93.46
2017-08-25T00:58:51.503Z,93.31
2017-08-25T00:59:51.437Z,93.49
2017-08-25T01:02:35.681Z,93.52
2017-08-25T01:02:36.693Z,93.15
2017-08-25T01:02:51.065Z,92.82
2017-08-25T01:03:51.501Z,93.09
2017-08-25T01:08:03.785Z,93.04
2017-08-25T01:08:04.797Z,92.95
2017-08-25T01:08:05.429Z,93.53
2017-08-25T01:08:06.036Z,93.97
2017-08-25T01:08:51.035Z,93.84
2017-08-25T01:09:51.578Z,93.95
2017-08-25T01:14:16.847Z,94.28
2017-08-25T01:14:17.455Z,93.94
2017-08-25T01:14:18.064Z,94.06
2017-08-25T01:14:18.672Z,94.10
2017-08-25T01:14:51.042Z,93.85
2017-08-25T01:15:51.466Z,94.45
2017-08-25T01:21:04.865Z,94.40
2017-08-25T01:21:05.878Z,94.49
2017-08-25T01:21:06.488Z,94.43
2017-08-25T01:21:07.097Z,94.23
2017-08-25T01:21:07.704Z,95.10
2017-08-25T01:21:51.091Z,95.33
2017-08-25T01:26:06.085Z,95.26
2017-08-25T01:26:07.097Z,94.86
2017-08-25T01:26:07.705Z,94.59
2017-08-25T01:26:08.313Z,93.95
2017-08-25T01:26:51.200Z,93.49
2017-08-25T01:27:51.538Z,93.77
2017-08-25T01:32:25.832Z,93.70
2017-08-25T01:32:26.440Z,94.36
2017-08-25T01:32:27.047Z,94.08
2017-08-25T01:32:27.654Z,94.05
2017-08-25T01:32:51.121Z,94.31
2017-08-25T01:33:51.554Z,94.09
2017-08-25T01:38:11.697Z,93.72
2017-08-25T01:38:12.718Z,93.75
2017-08-25T01:38:13.326Z,95.01
2017-08-25T01:38:13.937Z,94.93
2017-08-25T01:38:51.111Z,94.69
2017-08-25T01:39:51.533Z,94.62
2017-08-25T01:44:04.919Z,95.80
2017-08-25T01:44:05.955Z,95.74
2017-08-25T01:44:06.563Z,95.28
2017-08-25T01:44:07.170Z,95.70
2017-08-25T01:44:51.166Z,95.88
2017-08-25T01:45:51.601Z,95.52
2017-08-25T01:51:17.956Z,95.19
2017-08-25T01:51:18.564Z,95.46
2017-08-25T01:51:19.174Z,94.59
2017-08-25T01:51:19.782Z,94.83
2017-08-25T01:51:20.390Z,94.67
2017-08-25T01:51:51.158Z,94.90
2017-08-25T01:56:26.815Z,95.09
2017-08-25T01:56:27.828Z,94.75
2017-08-25T01:56:28.437Z,95.43
2017-08-25T01:56:29.066Z,96.19
2017-08-25T01:56:51.216Z,95.93
2017-08-25T01:57:51.593Z,95.96
2017-08-25T02:00:43.643Z,96.22
2017-08-25T02:00:44.251Z,96.27
2017-08-25T02:00:51.198Z,96.26
2017-08-25T02:01:51.728Z,96.04
2017-08-25T02:02:51.658Z,95.63
2017-08-25T02:03:51.689Z,96.11
2017-08-25T02:04:51.611Z,96.54
2017-08-25T02:05:51.645Z,96.67
2017-08-25T02:06:51.680Z,96.78
2017-08-25T02:07:51.636Z,96.70
2017-08-25T02:08:51.942Z,96.60
2017-08-25T02:09:51.671Z,96.51
2017-08-25T02:10:51.704Z,95.92
2017-08-25T02:11:51.758Z,95.40
2017-08-25T02:12:51.287Z,96.05
2017-08-25T02:13:51.323Z,96.60
2017-08-25T02:14:51.256Z,96.51
2017-08-25T02:15:51.374Z,96.49
2017-08-25T02:16:51.344Z,96.03
2017-08-25T02:17:51.268Z,96.02
2017-08-25T02:18:51.794Z,95.93
2017-08-25T02:19:51.717Z,96.25
2017-08-25T02:20:51.786Z,95.78
2017-08-25T02:21:51.913Z,95.41
2017-08-25T02:22:51.741Z,95.65
2017-08-25T02:23:51.774Z,95.58
2017-08-25T02:24:51.708Z,96.19
2017-08-25T02:25:51.688Z,95.85
2017-08-25T02:26:51.721Z,95.76
2017-08-25T02:27:51.347Z,94.92
2017-08-25T02:28:51.276Z,96.03
2017-08-25T02:29:51.308Z,95.06
2017-08-25T02:30:51.349Z,95.70
2017-08-25T02:31:51.434Z,96.51
2017-08-25T02:32:51.266Z,96.24
2017-08-25T02:33:51.691Z,95.20
2017-08-25T02:34:51.748Z,96.60
2017-08-25T02:35:51.780Z,95.55
2017-08-25T02:36:51.805Z,96.03
2017-08-25T02:37:51.726Z,95.12
2017-08-25T02:38:51.757Z,95.29
2017-08-25T02:39:51.790Z,95.58
2017-08-25T02:40:51.747Z,95.51
2017-08-25T02:41:51.790Z,96.09
2017-08-25T02:42:51.316Z,96.49
2017-08-25T02:43:51.856Z,96.19
2017-08-25T02:44:51.382Z,95.63
2017-08-25T02:45:51.428Z,95.72
2017-08-25T02:46:51.463Z,95.35
2017-08-25T02:47:51.489Z,94.95
2017-08-25T02:48:51.422Z,94.80
2017-08-25T02:49:51.465Z,95.26
2017-08-25T02:50:51.500Z,95.11
2017-08-25T02:51:51.545Z,95.57
2017-08-25T02:52:51.392Z,95.88
2017-08-25T02:53:51.843Z,96.20
2017-08-25T02:54:51.866Z,96.30
2017-08-25T02:55:51.897Z,95.88
2017-08-25T02:56:51.863Z,94.32
2017-08-25T02:57:51.893Z,95.07
2017-08-25T02:58:51.826Z,95.21
2017-08-25T02:59:51.919Z,95.61
2017-08-25T03:00:51.453Z,96.65
2017-08-25T03:01:51.488Z,97.07
2017-08-25T03:02:51.412Z,97.24
2017-08-25T03:03:51.444Z,97.09
2017-08-25T03:04:51.470Z,97.26
2017-08-25T03:05:51.406Z,96.21
2017-08-25T03:06:51.615Z,95.60
2017-08-25T03:07:51.737Z,95.91
2017-08-25T03:08:51.469Z,95.60
2017-08-25T03:09:52.107Z,96.26
2017-08-25T03:10:51.920Z,95.96
2017-08-25T03:11:51.955Z,96.43
2017-08-25T03:12:51.928Z,95.65
2017-08-25T03:13:51.960Z,95.81
2017-08-25T03:14:51.892Z,95.50
2017-08-25T03:15:51.922Z,95.55
2017-08-25T03:16:51.955Z,95.59
2017-08-25T03:17:51.483Z,95.92
2017-08-25T03:18:51.511Z,96.32
2017-08-25T03:19:51.543Z,96.34
2017-08-25T03:20:51.476Z,95.94
2017-08-25T03:21:51.600Z,95.42
2017-08-25T03:22:51.531Z,95.58
2017-08-25T03:23:51.462Z,96.25
2017-08-25T03:24:51.900Z,96.34
2017-08-25T03:25:51.927Z,96.45
2017-08-25T03:26:51.949Z,96.65
2017-08-25T03:27:51.966Z,97.33
2017-08-25T03:28:51.900Z,97.35
2017-08-25T03:29:51.936Z,97.10
2017-08-25T03:30:51.984Z,97.07
2017-08-25T03:31:52.002Z,96.76
2017-08-25T03:32:51.939Z,97.50
2017-08-25T03:33:51.564Z,97.55
2017-08-25T03:34:51.492Z,96.75
2017-08-25T03:35:51.544Z,97.73
2017-08-25T03:36:51.580Z,97.82
2017-08-25T03:37:51.505Z,97.97
2017-08-25T03:38:51.532Z,97.43
2017-08-25T03:39:51.584Z,97.03
2017-08-25T03:40:51.519Z,96.56
2017-08-25T03:41:52.063Z,96.69
2017-08-25T03:42:51.908Z,96.28
2017-08-25T03:44:17.178Z,96.28
2017-08-25T03:46:04.713Z,96.12
2017-08-25T03:46:05.749Z,95.38
2017-08-25T03:46:06.353Z,95.58
2017-08-25T03:46:51.562Z,95.35
2017-08-25T03:47:51.983Z,95.10
2017-08-25T03:48:51.522Z,96.41
2017-08-25T03:49:51.580Z,94.86
2017-08-25T03:50:51.571Z,96.42
2017-08-25T03:51:51.660Z,96.94
2017-08-25T03:52:51.588Z,96.66
2017-08-25T03:53:51.604Z,97.11
2017-08-25T03:54:51.565Z,96.86
2017-08-25T03:55:51.609Z,96.01
2017-08-25T03:56:51.638Z,95.59
2017-08-25T03:57:51.593Z,95.88
2017-08-25T03:58:52.018Z,96.10
2017-08-25T03:59:52.063Z,96.16
2017-08-25T04:00:51.995Z,96.93
2017-08-25T04:01:52.025Z,97.14
2017-08-25T04:02:51.966Z,96.89
2017-08-25T04:03:51.991Z,97.30
2017-08-25T04:04:52.028Z,97.19
2017-08-25T04:05:52.063Z,97.07
2017-08-25T04:06:52.097Z,95.83
2017-08-25T04:07:52.230Z,95.57
2017-08-25T04:08:51.677Z,95.39
2017-08-25T04:09:51.606Z,95.51
2017-08-25T04:10:51.637Z,95.32
2017-08-25T04:11:51.588Z,95.91
2017-08-25T04:12:52.012Z,97.09
2017-08-25T04:13:52.134Z,95.99
2017-08-25T04:14:52.086Z,96.47
2017-08-25T04:15:52.017Z,97.32
2017-08-25T04:16:52.044Z,95.72
2017-08-25T04:17:52.077Z,96.77
2017-08-25T04:18:52.314Z,96.59
2017-08-25T04:19:52.039Z,96.01
2017-08-25T04:20:52.088Z,96.44
2017-08-25T04:21:52.125Z,97.27
2017-08-25T04:22:51.652Z,96.92
2017-08-25T04:23:51.710Z,96.84
2017-08-25T04:24:51.642Z,97.06
2017-08-25T04:25:51.675Z,96.86
2017-08-25T04:26:51.705Z,96.50
2017-08-25T04:27:51.658Z,96.31
2017-08-25T04:28:51.789Z,97.15
2017-08-25T04:29:51.622Z,96.26
2017-08-25T04:30:52.158Z,95.94
2017-08-25T04:31:52.364Z,96.82
2017-08-25T04:32:52.097Z,97.14
2017-08-25T04:33:52.138Z,97.38
2017-08-25T04:34:52.066Z,96.78
2017-08-25T04:35:52.113Z,97.57
2017-08-25T04:36:52.143Z,97.84
2017-08-25T04:37:52.143Z,97.54
2017-08-25T04:38:52.186Z,97.64
2017-08-25T04:39:51.722Z,97.41
2017-08-25T04:40:51.688Z,97.74
2017-08-25T04:41:51.733Z,97.56
2017-08-25T04:42:51.765Z,98.05
2017-08-25T04:43:51.711Z,97.76
2017-08-25T04:44:51.745Z,97.79
2017-08-25T04:45:58.185Z,97.72
2017-08-25T04:46:51.814Z,97.67
2017-08-25T04:47:52.136Z,97.26
2017-08-25T04:48:52.162Z,96.92
2017-08-25T04:49:52.127Z,97.76
2017-08-25T04:50:52.210Z,98.08
2017-08-25T04:51:52.168Z,97.13
2017-08-25T04:52:52.206Z,96.92
2017-08-25T04:53:52.295Z,96.57
2017-08-25T04:54:52.145Z,97.14
2017-08-25T04:55:52.190Z,97.14
2017-08-25T04:56:51.824Z,97.72
2017-08-25T04:57:51.733Z,97.80
2017-08-25T04:58:51.796Z,97.64
2017-08-25T04:59:51.747Z,96.76
2017-08-25T05:00:51.758Z,97.43
2017-08-25T05:01:51.771Z,97.38
2017-08-25T05:02:51.838Z,96.89
2017-08-25T05:03:51.728Z,97.07
2017-08-25T05:04:52.171Z,96.70
2017-08-25T05:05:52.178Z,96.70
2017-08-25T05:06:52.304Z,97.75
2017-08-25T05:07:52.205Z,97.55
2017-08-25T05:08:52.245Z,97.48
2017-08-25T05:09:52.252Z,97.35
2017-08-25T05:10:52.184Z,97.93
2017-08-25T05:11:52.272Z,97.78
2017-08-25T05:12:52.267Z,97.69
2017-08-25T05:13:51.787Z,97.06
2017-08-25T05:14:51.849Z,96.85
2017-08-25T05:15:51.798Z,96.75
2017-08-25T05:16:51.824Z,97.00
2017-08-25T05:17:51.866Z,96.83
2017-08-25T05:18:51.821Z,96.71
2017-08-25T05:19:51.836Z,97.57
2017-08-25T05:20:52.195Z,97.97
2017-08-25T05:21:52.533Z,96.80
2017-08-25T05:22:52.269Z,96.99
2017-08-25T05:23:52.253Z,97.05
2017-08-25T05:24:52.295Z,97.48
2017-08-25T05:25:52.297Z,96.84
2017-08-25T05:26:52.251Z,96.98
2017-08-25T05:27:52.420Z,96.25
2017-08-25T05:28:52.244Z,96.57
2017-08-25T05:29:51.852Z,97.43
2017-08-25T05:30:53.314Z,96.43
2017-08-25T05:31:51.860Z,96.30
2017-08-25T05:32:52.203Z,96.39
2017-08-25T05:33:52.358Z,95.82
2017-08-25T05:34:51.892Z,95.94
2017-08-25T05:35:52.032Z,95.64
2017-08-25T05:36:51.975Z,94.89
2017-08-25T05:37:51.875Z,94.77
2017-08-25T05:38:52.321Z,94.82
2017-08-25T05:39:52.301Z,95.20
2017-08-25T05:40:52.266Z,94.95
2017-08-25T05:41:52.364Z,94.50
2017-08-25T05:42:52.293Z,95.10
2017-08-25T05:43:52.469Z,94.56
2017-08-25T05:44:52.332Z,94.38
2017-08-25T05:45:52.369Z,93.37
2017-08-25T05:46:51.970Z,94.11
2017-08-25T05:47:51.868Z,93.06
2017-08-25T05:48:51.932Z,93.17
2017-08-25T05:49:51.885Z,93.88
2017-08-25T05:50:52.028Z,93.25
2017-08-25T05:51:51.854Z,93.61
2017-08-25T05:52:52.327Z,92.84
2017-08-25T05:53:52.377Z,93.05
2017-08-25T05:54:52.317Z,92.77
2017-08-25T05:55:52.320Z,93.28
2017-08-25T05:56:52.514Z,93.00
2017-08-25T05:57:52.370Z,91.51
2017-08-25T05:58:52.347Z,90.99
2017-08-25T05:59:52.320Z,90.56
2017-08-25T06:00:52.398Z,91.04
2017-08-25T06:01:52.351Z,90.58
2017-08-25T06:02:51.948Z,89.54
2017-08-25T06:03:51.989Z,90.14
2017-08-25T06:04:52.012Z,89.06
2017-08-25T06:05:51.921Z,89.32
2017-08-25T06:06:52.016Z,88.69
2017-08-25T06:07:51.988Z,89.39
2017-08-25T06:08:51.974Z,89.69
2017-08-25T06:09:51.949Z,89.02
2017-08-25T06:10:52.433Z,89.19
2017-08-25T06:11:52.880Z,89.25
2017-08-25T06:12:52.038Z,88.15
2017-08-25T06:13:52.392Z,89.77
2017-08-25T06:14:52.666Z,88.79
2017-08-25T06:15:52.419Z,88.79
2017-08-25T06:16:52.611Z,89.14
2017-08-25T06:17:52.369Z,88.83
2017-08-25T06:18:52.639Z,87.87
2017-08-25T06:19:51.983Z,86.87
2017-08-25T06:20:51.969Z,85.25
2017-08-25T06:21:52.039Z,87.22
2017-08-25T06:22:52.007Z,87.74
2017-08-25T06:23:52.001Z,87.53
2017-08-25T06:24:51.955Z,87.49
2017-08-25T06:25:52.400Z,87.53
2017-08-25T06:26:52.440Z,85.84
2017-08-25T06:27:52.393Z,86.29
2017-08-25T06:28:52.458Z,85.54
2017-08-25T06:29:52.458Z,86.14
2017-08-25T06:30:52.449Z,87.08
2017-08-25T06:31:52.522Z,83.43
2017-08-25T06:32:52.418Z,83.15
2017-08-25T06:33:52.388Z,83.66
2017-08-25T06:34:52.553Z,83.73
2017-08-25T06:35:52.549Z,84.19
2017-08-25T06:36:52.154Z,83.33
2017-08-25T06:37:52.114Z,83.35
2017-08-25T06:38:52.074Z,83.34
2017-08-25T06:39:52.172Z,83.54
2017-08-25T06:40:52.092Z,82.67
2017-08-25T06:41:52.056Z,82.90
2017-08-25T06:42:52.700Z,82.13
2017-08-25T06:43:52.753Z,82.50
2017-08-25T06:44:52.584Z,82.93
2017-08-25T06:45:52.738Z,83.27
2017-08-25T06:46:52.869Z,83.54
2017-08-25T06:47:52.500Z,81.77
2017-08-25T06:48:52.554Z,82.77
2017-08-25T06:49:52.524Z,83.20
2017-08-25T06:50:52.472Z,82.62
2017-08-25T06:51:52.566Z,82.77
2017-08-25T06:52:52.093Z,82.22
2017-08-25T06:53:52.661Z,81.82
2017-08-25T06:54:52.083Z,81.52
2017-08-25T06:55:52.163Z,81.36
2017-08-25T06:56:52.292Z,80.15
2017-08-25T06:57:52.406Z,80.63
2017-08-25T06:58:52.092Z,80.36
2017-08-25T06:59:52.534Z,80.62
2017-08-25T07:00:52.513Z,81.67
2017-08-25T07:01:52.574Z,80.85
2017-08-25T07:02:52.485Z,80.16
2017-08-25T07:03:52.535Z,81.19
2017-08-25T07:04:52.509Z,79.73
2017-08-25T07:05:52.455Z,78.88
2017-08-25T07:06:52.637Z,78.99
2017-08-25T07:07:52.106Z,80.19
2017-08-25T07:08:52.173Z,78.24
2017-08-25T07:09:52.103Z,78.71
2017-08-25T07:10:52.184Z,78.91
2017-08-25T07:11:52.130Z,78.98
2017-08-25T07:12:52.355Z,78.31
2017-08-25T07:13:52.208Z,77.44
2017-08-25T07:14:52.153Z,79.27
2017-08-25T07:15:52.164Z,78.40
2017-08-25T07:16:52.612Z,77.59
2017-08-25T07:17:52.535Z,77.46
2017-08-25T07:18:52.587Z,78.08
2017-08-25T07:19:52.532Z,76.52
2017-08-25T07:20:52.508Z,76.72
2017-08-25T07:21:52.828Z,77.18
2017-08-25T07:22:52.559Z,76.83
2017-08-25T07:23:52.757Z,76.09
2017-08-25T07:24:52.715Z,77.08
2017-08-25T07:25:52.184Z,74.64
2017-08-25T07:26:52.192Z,75.31
2017-08-25T07:27:52.198Z,76.01
2017-08-25T07:28:52.264Z,76.40
2017-08-25T07:31:49.088Z,76.77
2017-08-25T07:31:50.103Z,76.32
2017-08-25T07:31:52.216Z,75.99
2017-08-25T07:32:52.663Z,74.41
2017-08-25T07:33:52.593Z,74.91
2017-08-25T07:34:52.548Z,75.22
2017-08-25T07:35:52.605Z,74.48
2017-08-25T07:36:52.645Z,75.60
2017-08-25T07:37:52.616Z,73.31
2017-08-25T07:38:52.666Z,74.22
2017-08-25T07:39:52.623Z,74.19
2017-08-25T07:40:52.586Z,73.64
2017-08-25T07:41:52.629Z,73.53
2017-08-25T07:42:52.171Z,73.07
2017-08-25T07:43:53.146Z,73.97
2017-08-25T07:44:52.188Z,71.51
2017-08-25T07:45:52.218Z,73.17
2017-08-25T07:46:52.257Z,72.78
2017-08-25T07:47:52.259Z,72.23
2017-08-25T07:48:52.327Z,74.08
2017-08-25T07:49:52.189Z,72.65
2017-08-25T07:50:52.647Z,73.05
2017-08-25T07:51:52.788Z,72.22
2017-08-25T07:52:52.688Z,72.85
2017-08-25T07:53:52.641Z,71.49
2017-08-25T07:54:52.602Z,72.18
2017-08-25T07:55:52.646Z,72.90
2017-08-25T07:56:52.682Z,72.69
2017-08-25T07:57:52.660Z,72.52
2017-08-25T07:58:52.750Z,74.12
2017-08-25T07:59:52.240Z,73.59
2017-08-25T08:00:52.290Z,72.00
2017-08-25T08:01:52.258Z,73.36
2017-08-25T08:02:52.225Z,72.01
2017-08-25T08:03:52.293Z,71.62
2017-08-25T08:04:52.331Z,70.90
2017-08-25T08:06:00.989Z,74.06
2017-08-25T08:06:52.404Z,72.73
2017-08-25T08:07:52.686Z,71.52
2017-08-25T08:08:52.724Z,71.18
2017-08-25T08:09:52.680Z,70.76
2017-08-25T08:10:52.715Z,71.12
2017-08-25T08:11:52.751Z,69.98
2017-08-25T08:12:52.683Z,67.70
2017-08-25T08:13:52.743Z,65.76
2017-08-25T08:14:52.675Z,67.54
2017-08-25T08:15:52.731Z,67.98
2017-08-25T08:16:52.295Z,68.01
2017-08-25T08:17:52.332Z,67.03
2017-08-25T08:18:52.282Z,67.52
2017-08-25T08:19:52.316Z,70.20
2017-08-25T08:20:52.366Z,68.51
2017-08-25T08:21:52.389Z,68.82
2017-08-25T08:22:52.320Z,66.76
2017-08-25T08:23:52.376Z,65.17
2017-08-25T08:24:52.361Z,66.26
2017-08-25T08:25:52.802Z,68.85
2017-08-25T08:26:52.786Z,67.31
2017-08-25T08:27:52.744Z,67.37
2017-08-25T08:28:52.724Z,66.33
2017-08-25T08:29:52.787Z,66.01
2017-08-25T08:30:52.751Z,66.32
2017-08-25T08:34:14.886Z,67.78
2017-08-25T08:34:15.900Z,66.81
2017-08-25T08:34:16.507Z,65.48
2017-08-25T08:34:52.328Z,65.09
2017-08-25T08:35:52.722Z,65.14
2017-08-25T08:38:56.588Z,65.42
2017-08-25T08:38:57.198Z,65.65
2017-08-25T08:38:57.805Z,66.01
2017-08-25T08:39:52.462Z,64.83
2017-08-25T08:40:53.084Z,65.46
2017-08-25T08:41:52.423Z,65.03
2017-08-25T08:42:52.783Z,65.45
2017-08-25T08:43:52.759Z,66.20
2017-08-25T08:44:52.798Z,66.12
2017-08-25T08:45:53.137Z,64.98
2017-08-25T08:46:52.834Z,62.97
2017-08-25T08:47:52.819Z,63.03
2017-08-25T08:48:52.784Z,63.58
2017-08-25T08:49:52.839Z,64.28
2017-08-25T08:50:52.345Z,63.62
2017-08-25T08:51:52.508Z,65.59
2017-08-25T08:52:52.373Z,64.04
2017-08-25T08:53:52.442Z,64.42
2017-08-25T08:54:52.515Z,64.91
2017-08-25T08:55:52.402Z,66.55
2017-08-25T08:56:52.447Z,65.74
2017-08-25T08:57:52.393Z,65.09
2017-08-25T08:58:52.856Z,66.25
2017-08-25T08:59:52.923Z,64.89
2017-08-25T09:00:52.890Z,63.72
2017-08-25T09:01:52.857Z,65.76
2017-08-25T09:02:52.862Z,66.10
2017-08-25T09:03:52.880Z,65.71
2017-08-25T09:04:52.934Z,67.82
2017-08-25T09:05:57.447Z,65.05
2017-08-25T09:06:52.417Z,62.36
2017-08-25T09:07:52.863Z,63.63
2017-08-25T09:08:52.403Z,60.44
2017-08-25T09:09:53.082Z,62.16
2017-08-25T09:10:52.508Z,62.11
2017-08-25T09:11:52.550Z,61.01
2017-08-25T09:12:52.500Z,61.46
2017-08-25T09:13:52.484Z,61.79
2017-08-25T09:14:52.575Z,60.18
2017-08-25T09:15:52.521Z,58.93
2017-08-25T09:16:52.944Z,60.88
2017-08-25T09:17:52.879Z,58.66
2017-08-25T09:18:52.840Z,57.47
2017-08-25T09:19:52.902Z,56.68
2017-08-25T09:20:52.945Z,59.37
2017-08-25T09:21:52.926Z,56.89
2017-08-25T09:22:52.870Z,54.04
2017-08-25T09:23:52.466Z,56.10
2017-08-25T09:24:53.046Z,53.12
2017-08-25T09:25:52.494Z,56.11
2017-08-25T09:26:52.553Z,54.37
2017-08-25T09:27:52.504Z,55.68
2017-08-25T09:28:52.547Z,54.68
2017-08-25T09:29:52.586Z,53.56
2017-08-25T09:30:52.746Z,52.92
2017-08-25T09:31:52.500Z,53.05
2017-08-25T09:32:52.943Z,51.98
2017-08-25T09:33:52.966Z,52.76
2017-08-25T09:34:53.006Z,52.87
2017-08-25T09:35:52.890Z,54.24
2017-08-25T09:36:52.947Z,54.78
2017-08-25T09:37:52.927Z,56.93
2017-08-25T09:38:52.960Z,54.59
2017-08-25T09:39:53.028Z,54.73
2017-08-25T09:40:53.114Z,54.48
2017-08-25T09:41:52.536Z,52.97
2017-08-25T09:42:52.559Z,54.08
2017-08-25T09:43:52.554Z,53.69
2017-08-25T09:44:52.585Z,52.09
2017-08-25T09:45:52.541Z,52.01
2017-08-25T09:46:52.656Z,52.07
2017-08-25T09:47:52.599Z,52.79
2017-08-25T09:48:52.947Z,51.96
2017-08-25T09:49:53.028Z,51.15
2017-08-25T09:50:53.033Z,52.44
2017-08-25T09:51:52.987Z,51.80
2017-08-25T09:52:53.012Z,51.46
2017-08-25T09:53:53.036Z,53.19
2017-08-25T09:54:53.093Z,52.40
2017-08-25T09:55:53.012Z,53.10
2017-08-25T09:56:53.046Z,51.38
2017-08-25T09:57:52.586Z,50.64
2017-08-25T09:58:52.623Z,50.06
2017-08-25T09:59:52.697Z,49.81
2017-08-25T10:00:52.600Z,50.01
2017-08-25T10:01:52.682Z,50.86
2017-08-25T10:02:52.561Z,49.41
2017-08-25T10:03:53.054Z,49.24
2017-08-25T10:04:53.047Z,50.48
2017-08-25T10:05:53.185Z,49.28
2017-08-25T10:06:53.046Z,49.40
2017-08-25T10:07:53.078Z,51.46
2017-08-25T10:08:53.031Z,48.25
2017-08-25T10:09:53.086Z,47.28
2017-08-25T10:10:53.046Z,46.23
2017-08-25T10:11:53.070Z,47.67
2017-08-25T10:12:53.031Z,46.99
2017-08-25T10:13:52.591Z,45.59
2017-08-25T10:14:52.656Z,48.87
2017-08-25T10:15:52.742Z,46.54
2017-08-25T10:16:52.625Z,47.31
2017-08-25T10:17:52.667Z,46.80
2017-08-25T10:18:52.698Z,48.57
2017-08-25T10:19:52.663Z,48.73
2017-08-25T10:20:53.097Z,46.43
2017-08-25T10:21:53.061Z,48.97
2017-08-25T10:22:53.097Z,48.60
2017-08-25T10:23:53.031Z,48.20
2017-08-25T10:24:53.155Z,49.71
2017-08-25T10:25:53.091Z,48.68
2017-08-25T10:26:53.066Z,48.30
2017-08-25T10:27:53.068Z,48.50
2017-08-25T10:28:53.106Z,45.77
2017-08-25T10:29:53.106Z,45.18
2017-08-25T10:30:52.712Z,45.89
2017-08-25T10:31:52.696Z,46.10
2017-08-25T10:32:52.702Z,46.06
2017-08-25T10:33:52.674Z,46.79
2017-08-25T10:34:52.737Z,44.67
2017-08-25T10:35:52.696Z,44.71
2017-08-25T10:36:52.751Z,45.83
2017-08-25T10:37:52.714Z,44.66
2017-08-25T10:38:53.172Z,45.74
2017-08-25T10:39:53.160Z,44.05
2017-08-25T10:40:53.233Z,45.16
2017-08-25T10:41:53.088Z,44.84
2017-08-25T10:42:53.128Z,45.14
2017-08-25T10:43:53.111Z,43.92
2017-08-25T10:44:53.113Z,44.37
2017-08-25T10:45:53.214Z,44.27
2017-08-25T10:46:52.687Z,43.31
2017-08-25T10:47:52.779Z,44.88
2017-08-25T10:48:52.754Z,48.33
2017-08-25T10:49:52.752Z,42.87
2017-08-25T10:50:52.733Z,43.43
2017-08-25T10:51:52.802Z,45.14
2017-08-25T10:52:52.807Z,44.25
2017-08-25T10:53:52.870Z,45.43
2017-08-25T10:54:52.881Z,46.22
2017-08-25T10:55:55.357Z,46.69
2017-08-25T10:56:52.794Z,44.26
2017-08-25T10:57:53.269Z,45.84
2017-08-25T10:58:53.170Z,48.93
2017-08-25T10:59:53.149Z,47.57
2017-08-25T11:00:53.154Z,44.96
2017-08-25T11:01:53.234Z,46.91
2017-08-25T11:02:52.743Z,47.90
2017-08-25T11:03:52.791Z,47.30
2017-08-25T11:04:52.779Z,45.20
2017-08-25T11:05:52.809Z,44.63
2017-08-25T11:06:52.766Z,46.41
2017-08-25T11:07:52.845Z,46.96
2017-08-25T11:08:52.777Z,43.92
2017-08-25T11:10:10.712Z,47.10
2017-08-25T11:10:57.921Z,46.26
2017-08-25T11:11:53.258Z,49.76
2017-08-25T11:12:53.378Z,51.05
2017-08-25T11:13:53.261Z,48.72
2017-08-25T11:14:53.321Z,44.53
2017-08-25T11:15:53.362Z,47.18
2017-08-25T11:16:53.290Z,48.80
2017-08-25T11:17:53.253Z,50.96
2017-08-25T11:18:53.208Z,48.65
2017-08-25T11:19:53.306Z,46.89
2017-08-25T11:20:52.807Z,49.19
2017-08-25T11:21:52.877Z,47.42
2017-08-25T11:22:52.883Z,50.93
2017-08-25T11:23:52.867Z,49.64
2017-08-25T11:24:52.849Z,49.89
2017-08-25T11:25:53.039Z,47.54
2017-08-25T11:26:52.985Z,49.32
2017-08-25T11:27:52.832Z,49.98
2017-08-25T11:28:53.262Z,47.93
2017-08-25T11:29:53.301Z,47.06
2017-08-25T11:30:53.250Z,46.76
2017-08-25T11:31:53.274Z,48.03
2017-08-25T11:32:53.316Z,46.17
2017-08-25T11:33:53.254Z,47.02
2017-08-25T11:34:53.292Z,45.93
2017-08-25T11:35:53.358Z,45.60
2017-08-25T11:36:52.875Z,45.53
2017-08-25T11:37:52.874Z,45.70
2017-08-25T11:38:52.841Z,46.55
2017-08-25T11:39:52.816Z,46.22
2017-08-25T11:40:52.887Z,47.00
2017-08-25T11:41:53.026Z,45.12
2017-08-25T11:42:52.889Z,45.74
2017-08-25T11:43:52.829Z,45.66
2017-08-25T11:44:58.459Z,47.07
2017-08-25T11:45:53.289Z,45.76
2017-08-25T11:46:53.335Z,47.58
2017-08-25T11:47:53.364Z,47.20
2017-08-25T11:48:53.322Z,48.73
2017-08-25T11:49:53.303Z,46.43
2017-08-25T11:50:53.347Z,46.64
2017-08-25T11:51:53.421Z,46.38
2017-08-25T11:52:53.382Z,46.99
2017-08-25T11:53:52.909Z,46.42
2017-08-25T11:54:52.872Z,47.48
2017-08-25T11:55:52.925Z,49.49
2017-08-25T11:56:53.061Z,48.53
2017-08-25T11:57:52.950Z,48.71
2017-08-25T11:58:52.980Z,49.43
2017-08-25T11:59:52.909Z,51.51
2017-08-25T12:00:53.460Z,53.20
2017-08-25T12:01:53.395Z,51.32
2017-08-25T12:02:53.391Z,49.31
2017-08-25T12:03:53.321Z,49.43
2017-08-25T12:04:53.362Z,45.08
2017-08-25T12:05:53.389Z,47.62
2017-08-25T12:06:53.423Z,50.12
2017-08-25T12:07:53.359Z,48.66
2017-08-25T12:08:53.498Z,51.03
2017-08-25T12:09:53.548Z,50.50
2017-08-25T12:10:53.019Z,48.91
2017-08-25T12:11:53.519Z,50.78
2017-08-25T12:12:52.965Z,53.89
2017-08-25T12:13:52.978Z,51.63
2017-08-25T12:14:53.033Z,52.24
2017-08-25T12:15:53.024Z,52.22
2017-08-25T12:16:53.041Z,51.45
2017-08-25T12:17:52.966Z,52.19
2017-08-25T12:18:53.442Z,52.65
2017-08-25T12:19:53.508Z,50.89
2017-08-25T12:20:53.457Z,49.04
2017-08-25T12:21:53.496Z,48.95
2017-08-25T12:22:53.366Z,52.27
2017-08-25T12:23:53.425Z,52.05
2017-08-25T12:24:53.473Z,51.90
2017-08-25T12:25:53.437Z,52.12
2017-08-25T12:26:53.042Z,53.00
2017-08-25T12:27:53.029Z,52.67
2017-08-25T12:28:52.997Z,51.78
2017-08-25T12:29:52.981Z,51.73
2017-08-25T12:30:53.042Z,50.68
2017-08-25T12:31:53.260Z,52.48
2017-08-25T12:32:53.009Z,52.44
2017-08-25T12:33:53.474Z,53.03
2017-08-25T12:34:53.465Z,52.12
2017-08-25T12:35:53.545Z,52.67
2017-08-25T12:36:53.518Z,52.75
2017-08-25T12:37:53.476Z,51.48
2017-08-25T12:38:53.532Z,52.54
2017-08-25T12:39:53.480Z,54.46
2017-08-25T12:40:53.547Z,54.07
2017-08-25T12:41:53.479Z,55.37
2017-08-25T12:42:53.469Z,52.14
2017-08-25T12:43:53.549Z,54.83
2017-08-25T12:44:53.097Z,54.63
2017-08-25T12:46:19.962Z,54.63
2017-08-25T12:46:20.976Z,54.63
2017-08-25T12:46:54.907Z,54.69
2017-08-25T12:47:53.507Z,54.47
2017-08-25T12:48:53.455Z,52.38
2017-08-25T12:49:53.468Z,52.79
2017-08-25T12:50:53.526Z,51.92